Terminal Aerodrome Forecast
Issued by NWS

Home | Current Version | Previous Version | Text Only | Print | Product List | Glossary On
Versions: 1 2 3 4 5 6 7 8 9 10 11 12 13 14 15 16 17 18 19 20 21 22 23 24 25 26 27 28 29 30
156
FTUS42 KRAH 010530
TAFINT
TAF
KINT 010530Z 0106/0206 23005KT P6SM BKN050 BKN100
     FM011700 30007KT P6SM BKN070 PROB30 0118/0122 4SM -TSRA BR
      BKN050CB
     FM012200 35008KT P6SM VCSH BKN080 OVC150=

USA.gov is the U.S. government's official web portal to all federal, state and local government web resources and services.